createdAt,value
2022-10-31T00:00:12.614Z,61.60
2022-10-31T00:02:39.459Z,62.40
2022-10-31T00:05:05.747Z,76.60
2022-10-31T00:07:32.016Z,66.18
2022-10-31T00:09:58.280Z,61.20
2022-10-31T00:12:24.553Z,67.22
2022-10-31T00:14:50.796Z,76.75
2022-10-31T00:17:17.070Z,79.00
2022-10-31T00:19:43.329Z,77.88
2022-10-31T00:22:09.573Z,78.35
2022-10-31T00:24:35.834Z,73.88
2022-10-31T00:27:02.080Z,73.97
2022-10-31T00:29:28.347Z,80.00
2022-10-31T00:31:54.618Z,62.63
2022-10-31T00:34:20.866Z,60.45
2022-10-31T00:36:47.105Z,62.50
2022-10-31T00:39:13.365Z,62.63
2022-10-31T00:41:39.693Z,64.88
2022-10-31T00:44:05.989Z,67.38
2022-10-31T00:46:32.286Z,65.38
2022-10-31T00:48:58.549Z,61.42
2022-10-31T00:51:24.819Z,61.92
2022-10-31T00:53:51.075Z,57.33
2022-10-31T00:56:17.371Z,66.15
2022-10-31T00:58:43.635Z,70.25
2022-10-31T01:01:09.988Z,71.15
2022-10-31T01:03:36.384Z,72.65
2022-10-31T01:06:02.691Z,65.85
2022-10-31T01:08:28.944Z,68.07
2022-10-31T01:10:55.210Z,59.13
2022-10-31T01:15:48.562Z,67.13
2022-10-31T01:18:14.817Z,61.53
2022-10-31T01:20:41.065Z,64.80
2022-10-31T01:23:07.342Z,62.53
2022-10-31T01:25:33.589Z,59.70
2022-10-31T01:28:00.043Z,67.75
2022-10-31T01:30:26.506Z,64.30
2022-10-31T01:32:52.798Z,64.72
2022-10-31T01:35:19.041Z,62.10
2022-10-31T01:37:45.289Z,63.72
2022-10-31T01:40:11.574Z,62.03
2022-10-31T01:42:37.821Z,68.75
2022-10-31T01:45:04.070Z,64.75
2022-10-31T01:47:30.620Z,67.35
2022-10-31T01:49:56.870Z,63.70
2022-10-31T01:52:23.126Z,61.40
2022-10-31T01:54:49.429Z,75.75
2022-10-31T01:57:16.177Z,65.00
2022-10-31T01:59:42.426Z,93.53
2022-10-31T02:02:08.863Z,107.50
2022-10-31T02:04:35.177Z,89.68
2022-10-31T02:07:01.437Z,93.30
2022-10-31T02:09:27.685Z,70.07
2022-10-31T02:11:53.928Z,64.85
2022-10-31T02:14:20.186Z,68.85
2022-10-31T02:16:46.435Z,65.55
2022-10-31T02:19:12.684Z,85.03
2022-10-31T02:21:38.978Z,76.05
2022-10-31T02:24:05.234Z,64.90
2022-10-31T02:26:31.487Z,61.33
2022-10-31T02:28:57.752Z,68.30
2022-10-31T02:31:24.012Z,71.85
2022-10-31T02:33:50.433Z,67.15
2022-10-31T02:36:16.692Z,67.38
2022-10-31T02:38:42.961Z,70.65
2022-10-31T02:41:09.210Z,68.47
2022-10-31T02:43:35.632Z,59.22
2022-10-31T02:46:01.889Z,64.18
2022-10-31T02:48:28.190Z,70.50
2022-10-31T02:50:54.487Z,62.85
2022-10-31T02:53:20.761Z,64.70
2022-10-31T02:55:47.004Z,64.38
2022-10-31T02:58:13.361Z,60.42
2022-10-31T03:00:39.671Z,67.45
2022-10-31T03:03:05.954Z,70.90
2022-10-31T03:05:32.262Z,77.47
2022-10-31T03:07:58.550Z,65.10
2022-10-31T03:10:24.799Z,71.53
2022-10-31T03:12:51.088Z,89.05
2022-10-31T03:15:17.342Z,92.30
2022-10-31T03:17:43.620Z,101.30
2022-10-31T03:20:09.866Z,84.80
2022-10-31T03:22:36.137Z,96.28
2022-10-31T03:25:02.385Z,91.03
2022-10-31T03:27:28.647Z,69.05
2022-10-31T03:29:54.914Z,63.15
2022-10-31T03:32:21.165Z,61.60
2022-10-31T03:34:47.420Z,56.67
2022-10-31T03:37:13.681Z,58.70
2022-10-31T03:39:39.945Z,64.88
2022-10-31T03:42:06.206Z,73.53
2022-10-31T03:44:32.462Z,61.63
2022-10-31T03:46:58.745Z,61.22
2022-10-31T03:49:24.996Z,72.80
2022-10-31T03:51:51.261Z,82.95
2022-10-31T03:54:17.513Z,91.93
2022-10-31T03:56:43.762Z,89.60
2022-10-31T03:59:10.010Z,89.57
2022-10-31T04:01:36.410Z,88.53
2022-10-31T04:04:02.720Z,76.25
2022-10-31T04:06:28.969Z,90.25
2022-10-31T04:08:55.219Z,94.55
2022-10-31T04:11:21.478Z,56.05
2022-10-31T04:13:47.751Z,54.58
2022-10-31T04:16:16.950Z,52.90
2022-10-31T04:18:43.758Z,57.25
2022-10-31T04:21:10.011Z,56.55
2022-10-31T04:23:36.317Z,55.50
2022-10-31T04:26:02.584Z,59.85
2022-10-31T04:28:28.844Z,58.45
2022-10-31T04:30:55.108Z,56.83
2022-10-31T04:33:21.391Z,58.33
2022-10-31T04:35:47.656Z,54.97
2022-10-31T04:38:13.942Z,64.30
2022-10-31T04:43:30.233Z,61.95
2022-10-31T04:45:56.569Z,64.72
2022-10-31T04:48:22.820Z,59.60
2022-10-31T04:50:49.072Z,59.45
2022-10-31T04:53:15.418Z,60.97
2022-10-31T04:55:41.661Z,49.20
2022-10-31T04:58:07.946Z,46.25
2022-10-31T05:00:34.842Z,46.97
2022-10-31T05:03:01.565Z,52.17
2022-10-31T05:05:27.982Z,56.17
2022-10-31T05:07:54.244Z,47.20
2022-10-31T05:10:20.578Z,67.22
2022-10-31T05:12:47.493Z,69.20
2022-10-31T05:15:13.775Z,66.88
2022-10-31T05:17:40.047Z,68.75
2022-10-31T05:20:06.336Z,63.33
2022-10-31T05:22:32.586Z,72.57
2022-10-31T05:24:58.863Z,53.78
2022-10-31T05:27:25.125Z,47.90
2022-10-31T05:29:51.416Z,47.85
2022-10-31T05:32:17.698Z,47.08
2022-10-31T05:34:43.937Z,49.63
2022-10-31T05:37:10.201Z,44.00
2022-10-31T05:39:36.450Z,50.75
2022-10-31T05:42:02.919Z,49.97
2022-10-31T05:44:29.162Z,46.97
2022-10-31T05:46:55.419Z,54.10
2022-10-31T05:49:21.694Z,47.83
2022-10-31T05:51:47.941Z,51.08
2022-10-31T05:54:15.982Z,59.85
2022-10-31T05:56:42.510Z,47.80
2022-10-31T05:59:08.768Z,58.58
2022-10-31T06:01:35.056Z,45.97
2022-10-31T06:04:01.345Z,49.38
2022-10-31T06:06:27.614Z,52.08
2022-10-31T06:08:53.890Z,60.45
2022-10-31T06:11:20.159Z,64.00
2022-10-31T06:13:46.413Z,65.80
2022-10-31T06:16:12.668Z,73.88
2022-10-31T06:18:38.909Z,60.30
2022-10-31T06:21:05.154Z,61.17
2022-10-31T06:23:31.409Z,59.50
2022-10-31T06:25:57.709Z,62.80
2022-10-31T06:28:23.960Z,60.85
2022-10-31T06:30:50.201Z,60.60
2022-10-31T06:33:16.452Z,64.30
2022-10-31T06:35:42.727Z,66.78
2022-10-31T06:38:08.985Z,66.93
2022-10-31T06:40:35.260Z,62.78
2022-10-31T06:43:01.534Z,59.95
2022-10-31T06:45:27.827Z,61.83
2022-10-31T06:48:15.542Z,66.90
2022-10-31T06:50:40.627Z,68.53
2022-10-31T06:53:07.071Z,67.95
2022-10-31T06:55:33.380Z,70.78
2022-10-31T06:58:02.026Z,59.53
2022-10-31T07:00:29.583Z,65.88
2022-10-31T07:02:55.875Z,69.03
2022-10-31T07:05:22.182Z,73.55
2022-10-31T07:07:48.600Z,82.32
2022-10-31T07:10:14.853Z,77.50
2022-10-31T07:12:42.047Z,67.68
2022-10-31T07:15:08.236Z,86.30
2022-10-31T07:17:34.801Z,91.07
2022-10-31T07:20:01.066Z,89.38
2022-10-31T07:22:27.403Z,87.72
2022-10-31T07:24:53.663Z,83.45
2022-10-31T07:27:19.915Z,76.13
2022-10-31T07:29:46.317Z,74.45
2022-10-31T07:32:12.566Z,75.05
2022-10-31T07:34:41.253Z,87.00
2022-10-31T07:37:11.067Z,83.82
2022-10-31T07:39:37.326Z,78.03
2022-10-31T07:42:03.611Z,72.22
2022-10-31T07:44:29.877Z,73.68
2022-10-31T07:46:56.125Z,78.65
2022-10-31T07:49:22.408Z,85.75
2022-10-31T07:51:48.664Z,88.50
2022-10-31T07:54:14.909Z,83.47
2022-10-31T07:56:41.181Z,86.32
2022-10-31T07:59:07.529Z,77.30
2022-10-31T08:01:33.841Z,73.15
2022-10-31T08:04:00.094Z,75.18
2022-10-31T08:06:26.404Z,81.68
2022-10-31T08:08:52.680Z,74.07
2022-10-31T08:11:19.002Z,67.55
2022-10-31T08:13:45.333Z,67.47
2022-10-31T08:16:11.721Z,64.32
2022-10-31T08:18:38.727Z,66.95
2022-10-31T08:21:06.508Z,72.45
2022-10-31T08:23:32.767Z,73.90
2022-10-31T08:25:59.070Z,82.22
2022-10-31T08:28:25.333Z,80.47
2022-10-31T08:30:51.611Z,87.65
2022-10-31T08:33:17.959Z,61.45
2022-10-31T08:35:44.269Z,61.08
2022-10-31T08:38:13.751Z,62.58
2022-10-31T08:40:40.018Z,87.47
2022-10-31T08:43:06.485Z,80.03
2022-10-31T08:45:32.842Z,65.95
2022-10-31T08:47:59.517Z,71.85
2022-10-31T08:50:26.009Z,65.90
2022-10-31T08:53:04.674Z,127.47
2022-10-31T08:55:32.034Z,80.53
2022-10-31T08:57:58.624Z,57.78
2022-10-31T09:00:25.221Z,70.13
2022-10-31T09:02:51.501Z,76.38
2022-10-31T09:05:17.809Z,68.35
2022-10-31T09:07:44.053Z,75.15
2022-10-31T09:10:10.331Z,94.88
2022-10-31T09:12:36.589Z,80.75
2022-10-31T09:15:02.879Z,95.57
2022-10-31T09:17:31.609Z,149.20
2022-10-31T09:19:57.918Z,77.60
2022-10-31T09:22:24.174Z,90.85
2022-10-31T09:24:50.482Z,96.03
2022-10-31T09:27:16.738Z,80.57
2022-10-31T09:29:43.038Z,91.63
2022-10-31T09:32:09.292Z,999.90
2022-10-31T09:34:35.541Z,999.90
2022-10-31T09:37:01.820Z,999.90
2022-10-31T09:39:28.090Z,999.90
2022-10-31T09:41:56.281Z,999.90
2022-10-31T09:44:23.581Z,999.90
2022-10-31T09:46:49.862Z,999.90
2022-10-31T09:49:16.170Z,999.90
2022-10-31T09:51:42.449Z,999.90
2022-10-31T09:54:09.758Z,999.90
2022-10-31T09:56:36.390Z,999.90
2022-10-31T09:59:02.748Z,999.90
2022-10-31T10:01:29.143Z,999.90
2022-10-31T10:03:55.624Z,999.90
2022-10-31T10:06:21.877Z,999.90
2022-10-31T10:08:48.212Z,999.90
2022-10-31T10:11:14.490Z,999.90
2022-10-31T10:13:40.754Z,999.90
2022-10-31T10:16:07.022Z,999.90
2022-10-31T10:18:33.295Z,999.90
2022-10-31T10:20:59.760Z,999.90
2022-10-31T10:23:26.033Z,999.90
2022-10-31T10:25:52.314Z,999.90
2022-10-31T10:28:19.044Z,999.90
2022-10-31T10:30:45.332Z,999.90
2022-10-31T10:33:11.624Z,999.90
2022-10-31T10:35:37.882Z,999.90
2022-10-31T10:38:04.290Z,999.90
2022-10-31T10:40:30.745Z,999.90
2022-10-31T10:43:15.535Z,999.90
2022-10-31T10:46:00.252Z,999.90
2022-10-31T10:48:26.527Z,999.90
2022-10-31T10:50:52.788Z,999.90
2022-10-31T10:53:22.346Z,999.90
2022-10-31T10:55:48.669Z,999.90
2022-10-31T10:58:14.942Z,999.90
2022-10-31T11:00:41.305Z,999.90
2022-10-31T11:03:07.725Z,999.90
2022-10-31T11:05:34.088Z,999.90
2022-10-31T11:08:00.384Z,999.90
2022-10-31T11:10:26.667Z,999.90
2022-10-31T11:12:52.935Z,999.90
2022-10-31T11:15:19.217Z,999.90
2022-10-31T11:17:45.583Z,999.90
2022-10-31T11:20:16.224Z,999.90
2022-10-31T11:22:45.270Z,999.90
2022-10-31T11:25:11.721Z,999.90
2022-10-31T11:27:37.972Z,999.90
2022-10-31T11:30:04.243Z,999.90
2022-10-31T11:32:30.710Z,999.90
2022-10-31T11:34:57.044Z,999.90
2022-10-31T11:37:23.321Z,999.90
2022-10-31T11:39:54.057Z,999.90
2022-10-31T11:42:20.366Z,999.90
2022-10-31T11:44:46.694Z,999.90
2022-10-31T11:47:12.977Z,999.90
2022-10-31T11:49:39.245Z,999.90
2022-10-31T11:52:05.530Z,999.90
2022-10-31T11:54:31.822Z,999.90
2022-10-31T11:56:58.111Z,999.90
2022-10-31T11:59:24.389Z,999.90
2022-10-31T12:01:50.851Z,999.90
2022-10-31T12:04:18.001Z,999.90
2022-10-31T12:06:44.257Z,999.90
2022-10-31T12:09:10.578Z,999.90
2022-10-31T12:11:36.878Z,999.90
2022-10-31T12:14:04.259Z,999.90
2022-10-31T12:19:19.108Z,999.90
2022-10-31T12:21:45.776Z,999.90
2022-10-31T12:24:12.029Z,999.90
2022-10-31T12:26:38.586Z,999.90
2022-10-31T12:29:04.885Z,999.90
2022-10-31T12:31:31.138Z,999.90
2022-10-31T12:33:57.401Z,999.90
2022-10-31T12:36:23.672Z,999.90
2022-10-31T12:38:49.965Z,999.90
2022-10-31T12:41:16.225Z,999.90
2022-10-31T12:43:42.496Z,999.90
2022-10-31T12:46:09.244Z,999.90
2022-10-31T12:48:35.580Z,999.90
2022-10-31T12:51:01.856Z,999.90
2022-10-31T12:53:28.728Z,999.90
2022-10-31T12:55:55.038Z,999.90
2022-10-31T12:58:21.293Z,999.90
2022-10-31T13:00:47.682Z,999.90
2022-10-31T13:03:13.969Z,999.90
2022-10-31T13:05:41.231Z,999.90
2022-10-31T13:08:07.652Z,999.90
2022-10-31T13:10:36.441Z,999.90
2022-10-31T13:13:03.006Z,999.90
2022-10-31T13:15:29.427Z,999.90
2022-10-31T13:17:55.716Z,999.90
2022-10-31T13:20:22.005Z,999.90
2022-10-31T13:22:48.289Z,999.90
2022-10-31T13:25:14.600Z,999.90
2022-10-31T13:27:40.849Z,999.90
2022-10-31T13:30:07.161Z,999.90
2022-10-31T13:32:34.063Z,999.90
2022-10-31T13:35:00.806Z,999.90
2022-10-31T13:37:27.098Z,999.90
2022-10-31T13:39:53.375Z,999.90
2022-10-31T13:42:19.655Z,999.90
2022-10-31T13:44:45.928Z,999.90
2022-10-31T13:47:12.186Z,999.90
2022-10-31T13:49:39.024Z,999.90
2022-10-31T13:52:05.292Z,999.90
2022-10-31T13:54:32.291Z,999.90
2022-10-31T13:56:58.491Z,999.90
2022-10-31T13:59:24.931Z,999.90
2022-10-31T14:01:51.332Z,999.90
2022-10-31T14:04:23.908Z,999.90
2022-10-31T14:06:51.672Z,999.90
2022-10-31T14:09:17.937Z,999.90
2022-10-31T14:11:44.185Z,999.90
2022-10-31T14:14:10.558Z,999.90
2022-10-31T14:16:39.088Z,999.90
2022-10-31T14:19:05.341Z,999.90
2022-10-31T14:21:31.628Z,999.90
2022-10-31T14:23:57.923Z,999.90
2022-10-31T14:26:25.062Z,999.90
2022-10-31T14:28:51.375Z,999.90
2022-10-31T14:31:17.665Z,999.90
2022-10-31T14:33:43.948Z,999.90
2022-10-31T14:36:10.395Z,999.90
2022-10-31T14:38:36.653Z,999.90
2022-10-31T14:41:02.946Z,999.90
2022-10-31T14:43:29.213Z,999.90
2022-10-31T14:45:55.774Z,999.90
2022-10-31T14:48:22.062Z,999.90
2022-10-31T14:50:48.642Z,999.90
2022-10-31T14:53:14.946Z,999.90
2022-10-31T14:55:41.205Z,999.90
2022-10-31T14:58:07.463Z,999.90
2022-10-31T15:00:33.754Z,999.90
2022-10-31T15:03:00.486Z,999.90
2022-10-31T15:05:26.885Z,999.90
2022-10-31T18:25:43.486Z,999.90
2022-10-31T18:28:09.753Z,999.90
2022-10-31T18:30:36.022Z,999.90
2022-10-31T18:33:02.464Z,999.90
2022-10-31T18:35:28.769Z,999.90
2022-10-31T18:37:56.067Z,999.90
2022-10-31T18:40:24.470Z,35.05
2022-10-31T18:42:50.717Z,16.08
2022-10-31T18:45:32.691Z,16.30
2022-10-31T18:48:03.437Z,16.85
2022-10-31T18:50:29.880Z,17.50
2022-10-31T18:52:56.203Z,33.15
2022-10-31T18:55:22.514Z,19.73
2022-10-31T18:57:48.799Z,22.33
2022-10-31T19:00:17.347Z,33.13
2022-10-31T19:02:43.611Z,42.97
2022-10-31T19:05:09.936Z,32.75
2022-10-31T19:07:36.189Z,21.55
2022-10-31T19:10:02.435Z,18.08
2022-10-31T19:12:28.704Z,21.90
2022-10-31T19:14:55.259Z,45.30
2022-10-31T19:17:21.802Z,37.15
2022-10-31T19:19:48.048Z,31.45
2022-10-31T19:22:14.292Z,24.25
2022-10-31T19:24:40.622Z,22.88
2022-10-31T19:27:06.911Z,22.73
2022-10-31T19:29:33.442Z,22.40
2022-10-31T19:31:59.694Z,21.80
2022-10-31T19:34:25.942Z,27.17
2022-10-31T19:36:52.215Z,22.80
2022-10-31T19:39:18.477Z,20.88
2022-10-31T19:41:44.742Z,21.13
2022-10-31T19:44:13.377Z,19.80
2022-10-31T19:46:59.762Z,20.38
2022-10-31T19:49:26.039Z,22.35
2022-10-31T19:54:43.075Z,21.13
2022-10-31T19:57:09.332Z,22.80
2022-10-31T19:59:39.336Z,23.20
2022-10-31T20:02:05.915Z,22.95
2022-10-31T20:04:32.399Z,23.58
2022-10-31T20:06:58.662Z,21.25
2022-10-31T20:09:26.921Z,27.50
2022-10-31T20:11:53.321Z,22.27
2022-10-31T20:14:19.618Z,21.70
2022-10-31T20:16:45.893Z,19.17
2022-10-31T20:19:12.137Z,23.00
2022-10-31T20:21:38.572Z,20.08
2022-10-31T20:24:04.820Z,23.63
2022-10-31T20:26:31.084Z,17.10
2022-10-31T20:28:57.356Z,19.42
2022-10-31T20:31:23.632Z,21.00
2022-10-31T20:33:49.877Z,21.42
2022-10-31T20:36:19.369Z,24.15
2022-10-31T20:38:45.624Z,22.33
2022-10-31T20:41:11.962Z,19.40
2022-10-31T20:43:38.209Z,23.55
2022-10-31T20:46:04.494Z,21.45
2022-10-31T20:48:30.762Z,22.42
2022-10-31T20:50:57.293Z,22.60
2022-10-31T20:53:23.548Z,19.27
2022-10-31T20:55:49.817Z,19.48
2022-10-31T20:58:16.056Z,18.65
2022-10-31T21:00:42.490Z,22.40
2022-10-31T21:03:08.761Z,22.15
2022-10-31T21:05:35.009Z,21.27
2022-10-31T21:08:01.296Z,22.33
2022-10-31T21:10:27.650Z,19.63
2022-10-31T21:12:53.933Z,23.17
2022-10-31T21:15:20.197Z,28.10
2022-10-31T21:17:46.549Z,28.63
2022-10-31T21:20:12.839Z,26.85
2022-10-31T21:22:39.181Z,26.15
2022-10-31T21:25:05.491Z,28.08
2022-10-31T21:27:31.797Z,28.02
2022-10-31T21:29:58.069Z,24.33
2022-10-31T21:32:24.342Z,27.95
2022-10-31T21:34:50.629Z,34.00
2022-10-31T21:37:16.889Z,29.75
2022-10-31T21:39:46.891Z,32.10
2022-10-31T21:42:20.462Z,31.70
2022-10-31T21:44:47.905Z,30.05
